Abbse Airport


Codes: OYAB/EAB
Name: Abbse Airport
City: Abbse
Country: Yemen
Elevation: 651 ft.

Photos at Abbse Airport


   Photos courtesy of SpottingLog. You can add your own sightings and photos by signing up for a free trial today.



No photos found.

Weather at Abbse Airport


Time (UTC)DescriptionTempratureWindCloud coverageVisibilityPressureHumidity
23-May-2024 18:00Light Rain15°C2 mph, S31%10000m1015hPa54%
23-May-2024 21:00Scattered Clouds15°C2 mph, S33%10000m1015hPa52%
24-May-2024 00:00Light Rain14°C2 mph, E26%10000m1014hPa49%
24-May-2024 03:00Clear Sky13°C0 mph, SE2%10000m1015hPa51%
24-May-2024 06:00Scattered Clouds16°C2 mph, S27%10000m1015hPa29%
24-May-2024 09:00Scattered Clouds19°C2 mph, SW31%10000m1013hPa21%
24-May-2024 12:00Broken Clouds19°C9 mph, W54%10000m1011hPa35%
24-May-2024 15:00Light Rain16°C7 mph, W100%10000m1013hPa51%
24-May-2024 18:00Light Rain15°C2 mph, W96%10000m1015hPa52%
24-May-2024 21:00Light Rain14°C2 mph, SW38%10000m1015hPa60%
25-May-2024 00:00Light Rain13°C2 mph, W36%10000m1014hPa66%
25-May-2024 03:00Scattered Clouds13°C2 mph, N28%10000m1015hPa67%
25-May-2024 06:00Few Clouds17°C2 mph, SW15%10000m1015hPa36%
25-May-2024 09:00Few Clouds19°C4 mph, SW14%10000m1013hPa28%
25-May-2024 12:00Scattered Clouds17°C13 mph, W48%10000m1012hPa48%
25-May-2024 15:00Overcast Clouds16°C9 mph, W96%10000m1013hPa51%
25-May-2024 18:00Light Rain15°C2 mph, W97%10000m1015hPa53%
25-May-2024 21:00Broken Clouds15°C0 mph, NW63%10000m1015hPa50%
26-May-2024 00:00Scattered Clouds14°C4 mph, N37%10000m1014hPa55%
26-May-2024 03:00Clear Sky13°C4 mph, NE0%10000m1015hPa47%
26-May-2024 06:00Clear Sky18°C4 mph, E0%10000m1015hPa23%
26-May-2024 09:00Clear Sky21°C7 mph, NE1%10000m1013hPa18%
26-May-2024 12:00Scattered Clouds20°C4 mph, NW35%10000m1012hPa29%
26-May-2024 15:00Overcast Clouds19°C2 mph, NE96%10000m1012hPa30%
26-May-2024 18:00Overcast Clouds17°C4 mph, E90%10000m1014hPa36%
26-May-2024 21:00Clear Sky16°C4 mph, NE2%10000m1015hPa34%
27-May-2024 00:00Clear Sky14°C4 mph, NE1%10000m1014hPa32%
27-May-2024 03:00Clear Sky14°C7 mph, NE0%10000m1015hPa28%
27-May-2024 06:00Clear Sky19°C11 mph, E0%10000m1015hPa19%
27-May-2024 09:00Clear Sky21°C13 mph, NE2%10000m1013hPa16%
27-May-2024 12:00Clear Sky22°C11 mph, NE3%10000m1011hPa17%
27-May-2024 15:00Few Clouds20°C7 mph, NE24%10000m1012hPa26%
27-May-2024 18:00Few Clouds17°C4 mph, NE17%10000m1014hPa37%
27-May-2024 21:00Clear Sky16°C4 mph, NE0%10000m1014hPa29%
28-May-2024 00:00Clear Sky15°C7 mph, NE2%10000m1014hPa29%
28-May-2024 03:00Clear Sky14°C7 mph, NE2%10000m1015hPa26%
28-May-2024 06:00Clear Sky19°C9 mph, NE2%10000m1015hPa16%
28-May-2024 09:00Few Clouds21°C18 mph, NE20%10000m1013hPa15%
28-May-2024 12:00Scattered Clouds22°C18 mph, NE27%10000m1011hPa15%
28-May-2024 15:00Few Clouds20°C20 mph, NE16%10000m1012hPa17%